EST,Max TemperatureF,Mean TemperatureF,Min TemperatureF,Max Dew PointF,MeanDew PointF,Min DewpointF,Max Humidity, Mean Humidity, Min Humidity, Max Sea Level PressureIn, Mean Sea Level PressureIn, Min Sea Level PressureIn, Max VisibilityMiles, Mean VisibilityMiles, Min VisibilityMiles, Max Wind SpeedMPH, Mean Wind SpeedMPH, Max Gust SpeedMPH,PrecipitationIn, CloudCover, Events, WindDirDegrees
2011-11-1,67,50,33,43,37,30,100,63,26,30.36,30.30,30.25,10,8,0,12,1,15,0.00,2,Fog,35
2011-11-2,67,51,35,43,36,33,92,61,29,30.41,30.32,30.22,10,10,10,13,2,24,0.00,1,,144
2011-11-3,60,50,39,55,46,36,93,77,60,30.22,29.97,29.85,10,7,1,20,5,25,0.52,6,Rain,226
2011-11-4,61,51,41,45,42,37,83,69,55,30.16,30.05,29.94,10,10,9,16,7,20,0.00,5,,338
2011-11-5,65,52,38,45,40,30,92,68,44,30.31,30.24,30.16,10,9,8,10,3,14,0.00,1,Fog,156
2011-11-6,66,51,35,45,39,31,86,65,44,30.43,30.36,30.30,10,10,10,12,2,14,0.00,1,,171
2011-11-7,71,56,40,51,45,37,93,70,47,30.41,30.33,30.25,10,10,8,6,0,7,0.00,1,Fog,30
2011-11-8,73,59,44,51,47,42,93,70,47,30.27,30.19,30.11,10,10,8,12,2,15,0.00,4,Fog,165
2011-11-9,63,55,46,58,52,41,93,83,72,30.12,30.05,29.99,10,7,1,20,4,24,0.19,6,Rain,210
2011-11-10,57,48,38,40,29,19,82,54,26,30.17,30.12,30.06,10,10,10,22,10,29,0.00,3,,330
2011-11-11,57,43,29,32,24,16,85,54,22,30.25,30.19,30.15,10,10,10,13,2,15,0.00,0,,210
2011-11-12,62,47,31,35,32,28,89,61,32,30.29,30.23,30.19,10,10,10,15,4,20,0.00,4,,181
2011-11-13,71,60,48,54,41,28,72,53,33,30.20,30.10,29.98,10,10,10,22,8,36,0.00,6,,180
2011-11-14,70,64,58,63,59,53,93,80,67,30.08,30.00,29.94,10,9,1,16,8,22,0.02,7,Rain,176
2011-11-15,68,66,64,65,64,62,93,90,87,29.98,29.92,29.87,10,6,1,14,7,20,1.11,8,Rain,173
2011-11-16,71,63,54,66,58,48,100,86,72,29.96,29.83,29.71,10,7,0,21,8,24,0.74,7,Rain,343
2011-11-17,54,45,35,47,29,17,83,55,27,30.38,30.20,29.96,10,10,10,21,12,26,T,3,Rain,337
2011-11-18,55,42,28,28,24,20,92,59,26,30.47,30.38,30.31,10,10,10,14,4,18,0.00,1,,157
2011-11-19,63,52,41,43,34,23,61,51,41,30.36,30.31,30.21,10,10,10,17,7,23,0.00,6,,177
2011-11-20,67,62,56,59,52,43,97,77,57,30.31,30.27,30.24,10,8,4,13,5,14,0.04,8,Rain,183
2011-11-21,71,64,57,63,60,55,100,87,73,30.27,30.22,30.12,10,4,0,9,1,12,T,7,Fog-Rain,132
2011-11-22,71,64,56,64,59,55,100,87,73,30.12,30.01,29.88,10,5,0,17,4,23,0.65,7,Fog-Rain-Thunderstorm,193
2011-11-23,62,53,43,58,46,40,90,78,66,30.30,30.14,29.92,10,10,10,20,9,25,0.02,5,,322
2011-11-24,64,51,37,43,39,36,92,66,39,30.40,30.35,30.30,10,10,2,10,1,26,0.00,0,Fog,354
2011-11-25,65,50,35,42,36,30,100,64,28,30.41,30.33,30.24,10,6,0,14,2,20,0.00,2,Fog,180
2011-11-26,68,54,40,52,46,37,89,74,58,30.30,30.19,30.06,10,10,10,15,3,28,0.00,6,,165
2011-11-27,63,61,59,58,57,52,93,80,67,30.04,29.92,29.83,10,4,2,18,6,28,2.17,8,Rain,166
2011-11-28,59,49,39,57,46,35,96,90,83,29.85,29.76,29.69,10,4,1,17,7,23,2.64,8,Rain,210
2011-11-29,41,39,37,36,34,33,85,82,79,30.02,29.87,29.79,10,9,6,17,9,22,0.04,8,Rain,207
2011-11-30,46,39,31,36,31,28,89,71,53,30.24,30.12,30.01,10,10,8,14,6,18,T,5,,312